AYN5076 UADD-UAAA
Flight info
| Callsign | AYN5076 |
|---|---|
| Flight time | 0h 48m |
| Altitude | 35000 |
| Route | GERPU2M GERPU Z817 AGLEK Z370 EKLAT EKLAT1Z |
| Aircraft | A320/M-L/S |
Departure
| Time | 2026-04-26 15:50 |
|---|---|
| Airport | Taraz International Airport (UADD) |
Arrival
| Time | 2026-04-26 16:38 |
|---|---|
| Airport | Almaty International Airport (UAAA) |
| Time | Latitude | Longitude | Altitude | Speed | Heading |
|---|---|---|---|---|---|
| 2026-04-26 15:14 | 42.86406 | 71.29460 | 2155 ft | 0 kts | 46° |
| 2026-04-26 15:40 | 42.86400 | 71.29451 | 2155 ft | 4 kts | 49° |
| 2026-04-26 15:40 | 42.86384 | 71.29422 | 2154 ft | 4 kts | 64° |
| 2026-04-26 15:40 | 42.86376 | 71.29388 | 2153 ft | 4 kts | 85° |
| 2026-04-26 15:40 | 42.86378 | 71.29354 | 2151 ft | 4 kts | 120° |
| 2026-04-26 15:41 | 42.86386 | 71.29339 | 2153 ft | 0 kts | 137° |
| 2026-04-26 15:43 | 42.86300 | 71.29432 | 2153 ft | 14 kts | 141° |
| 2026-04-26 15:44 | 42.86225 | 71.29522 | 2155 ft | 15 kts | 135° |
| 2026-04-26 15:44 | 42.86059 | 71.29732 | 2155 ft | 17 kts | 137° |
| 2026-04-26 15:44 | 42.85977 | 71.29836 | 2154 ft | 15 kts | 137° |
| 2026-04-26 15:45 | 42.85817 | 71.30039 | 2155 ft | 16 kts | 137° |
| 2026-04-26 15:45 | 42.85729 | 71.30151 | 2152 ft | 18 kts | 136° |
| 2026-04-26 15:46 | 42.85552 | 71.30377 | 2153 ft | 15 kts | 137° |
| 2026-04-26 15:46 | 42.85473 | 71.30475 | 2155 ft | 16 kts | 137° |
| 2026-04-26 15:46 | 42.85390 | 71.30580 | 2154 ft | 17 kts | 137° |
| 2026-04-26 15:46 | 42.85361 | 71.30617 | 2154 ft | 17 kts | 137° |
| 2026-04-26 15:47 | 42.85208 | 71.30792 | 2154 ft | 15 kts | 143° |
| 2026-04-26 15:47 | 42.85028 | 71.30974 | 2155 ft | 18 kts | 144° |
| 2026-04-26 15:47 | 42.84925 | 71.31074 | 2155 ft | 15 kts | 144° |
| 2026-04-26 15:48 | 42.84849 | 71.31143 | 2155 ft | 9 kts | 159° |
| 2026-04-26 15:48 | 42.84799 | 71.31110 | 2155 ft | 9 kts | 227° |
| 2026-04-26 15:48 | 42.84775 | 71.31054 | 2152 ft | 6 kts | 284° |
| 2026-04-26 15:48 | 42.84810 | 71.31014 | 2151 ft | 7 kts | 320° |
| 2026-04-26 15:49 | 42.84850 | 71.30966 | 2153 ft | 19 kts | 317° |
| 2026-04-26 15:49 | 42.85123 | 71.30624 | 2153 ft | 85 kts | 316° |
| 2026-04-26 15:49 | 42.85689 | 71.29905 | 2153 ft | 135 kts | 316° |
| 2026-04-26 15:49 | 42.86442 | 71.28952 | 2462 ft | 149 kts | 319° |
| 2026-04-26 15:50 | 42.87194 | 71.28009 | 3111 ft | 146 kts | 320° |
| 2026-04-26 15:50 | 42.87950 | 71.27086 | 3694 ft | 147 kts | 328° |
| 2026-04-26 15:50 | 42.88967 | 71.26812 | 4042 ft | 161 kts | 13° |
| 2026-04-26 15:50 | 42.89926 | 71.27615 | 4447 ft | 173 kts | 49° |
| 2026-04-26 15:51 | 42.90392 | 71.29204 | 4885 ft | 186 kts | 82° |
| 2026-04-26 15:51 | 42.90524 | 71.30968 | 5345 ft | 194 kts | 83° |
| 2026-04-26 15:51 | 42.90694 | 71.32844 | 5744 ft | 205 kts | 82° |
| 2026-04-26 15:51 | 42.90906 | 71.34845 | 6079 ft | 222 kts | 82° |
| 2026-04-26 15:52 | 42.91142 | 71.36972 | 6342 ft | 228 kts | 82° |
| 2026-04-26 15:52 | 42.91306 | 71.38454 | 6460 ft | 248 kts | 82° |
| 2026-04-26 15:52 | 42.91571 | 71.40858 | 6706 ft | 266 kts | 82° |
| 2026-04-26 15:52 | 42.91859 | 71.43424 | 7242 ft | 281 kts | 82° |
| 2026-04-26 15:53 | 42.92158 | 71.46118 | 7899 ft | 291 kts | 83° |
| 2026-04-26 15:53 | 42.92459 | 71.48868 | 8696 ft | 295 kts | 83° |
| 2026-04-26 15:53 | 42.92760 | 71.51658 | 9511 ft | 299 kts | 84° |
| 2026-04-26 15:53 | 42.93065 | 71.54484 | 10282 ft | 303 kts | 84° |
| 2026-04-26 15:54 | 42.93375 | 71.57406 | 10731 ft | 319 kts | 84° |
| 2026-04-26 15:54 | 42.93695 | 71.60446 | 11095 ft | 336 kts | 84° |
| 2026-04-26 15:54 | 42.94035 | 71.63670 | 11506 ft | 349 kts | 83° |
| 2026-04-26 15:54 | 42.94386 | 71.66992 | 12135 ft | 355 kts | 83° |
| 2026-04-26 15:55 | 42.94740 | 71.70344 | 12830 ft | 359 kts | 83° |
| 2026-04-26 15:55 | 42.95098 | 71.73727 | 13517 ft | 362 kts | 83° |
| 2026-04-26 15:55 | 42.95458 | 71.77160 | 14180 ft | 366 kts | 83° |
| 2026-04-26 15:55 | 42.95820 | 71.80620 | 14786 ft | 370 kts | 83° |
| 2026-04-26 15:56 | 42.96278 | 71.84096 | 15383 ft | 374 kts | 76° |
| 2026-04-26 15:56 | 42.96970 | 71.87529 | 15977 ft | 377 kts | 75° |
| 2026-04-26 15:56 | 42.97673 | 71.91011 | 16577 ft | 381 kts | 75° |
| 2026-04-26 15:56 | 42.98370 | 71.94470 | 17173 ft | 384 kts | 75° |
| 2026-04-26 15:57 | 42.99079 | 71.98007 | 17780 ft | 387 kts | 75° |
| 2026-04-26 15:57 | 42.99792 | 72.01572 | 18389 ft | 391 kts | 74° |
| 2026-04-26 15:57 | 43.00512 | 72.05168 | 18935 ft | 394 kts | 75° |
| 2026-04-26 15:57 | 43.01002 | 72.07625 | 19308 ft | 396 kts | 75° |
| 2026-04-26 15:58 | 43.01964 | 72.12472 | 20041 ft | 401 kts | 75° |
| 2026-04-26 15:58 | 43.02692 | 72.16159 | 20599 ft | 404 kts | 75° |
| 2026-04-26 15:58 | 43.03426 | 72.19885 | 21135 ft | 407 kts | 75° |
| 2026-04-26 15:58 | 43.04166 | 72.23646 | 21658 ft | 411 kts | 76° |
| 2026-04-26 15:59 | 43.04912 | 72.27427 | 22178 ft | 414 kts | 76° |
| 2026-04-26 15:59 | 43.05666 | 72.31251 | 22682 ft | 418 kts | 76° |
| 2026-04-26 15:59 | 43.06425 | 72.35104 | 23186 ft | 422 kts | 76° |
| 2026-04-26 15:59 | 43.07188 | 72.38996 | 23686 ft | 425 kts | 76° |
| 2026-04-26 16:00 | 43.07944 | 72.42863 | 24095 ft | 428 kts | 76° |
| 2026-04-26 16:00 | 43.08717 | 72.46813 | 24513 ft | 431 kts | 76° |
| 2026-04-26 16:00 | 43.09494 | 72.50793 | 24916 ft | 434 kts | 76° |
| 2026-04-26 16:00 | 43.10271 | 72.54792 | 25310 ft | 437 kts | 76° |
| 2026-04-26 16:01 | 43.11051 | 72.58831 | 25701 ft | 440 kts | 76° |
| 2026-04-26 16:01 | 43.11835 | 72.62895 | 26082 ft | 443 kts | 76° |
| 2026-04-26 16:01 | 43.12625 | 72.66979 | 26467 ft | 445 kts | 75° |
| 2026-04-26 16:01 | 43.13420 | 72.71092 | 26830 ft | 448 kts | 75° |
| 2026-04-26 16:02 | 43.14218 | 72.75236 | 27189 ft | 451 kts | 75° |
| 2026-04-26 16:02 | 43.15017 | 72.79408 | 27543 ft | 454 kts | 75° |
| 2026-04-26 16:02 | 43.15818 | 72.83606 | 27913 ft | 457 kts | 75° |
| 2026-04-26 16:02 | 43.16350 | 72.86394 | 28141 ft | 458 kts | 75° |
| 2026-04-26 16:03 | 43.17430 | 72.92072 | 28618 ft | 462 kts | 75° |
| 2026-04-26 16:03 | 43.18240 | 72.96346 | 28970 ft | 465 kts | 75° |
| 2026-04-26 16:03 | 43.19051 | 73.00652 | 29304 ft | 468 kts | 75° |
| 2026-04-26 16:03 | 43.19864 | 73.04979 | 29637 ft | 471 kts | 75° |
| 2026-04-26 16:04 | 43.20685 | 73.09340 | 29971 ft | 474 kts | 75° |
| 2026-04-26 16:04 | 43.21511 | 73.13726 | 30275 ft | 477 kts | 75° |
| 2026-04-26 16:04 | 43.22331 | 73.18082 | 30559 ft | 479 kts | 75° |
| 2026-04-26 16:04 | 43.23164 | 73.22517 | 30865 ft | 481 kts | 75° |
| 2026-04-26 16:05 | 43.23994 | 73.26959 | 31217 ft | 481 kts | 76° |
| 2026-04-26 16:05 | 43.24816 | 73.31398 | 31657 ft | 479 kts | 76° |
| 2026-04-26 16:05 | 43.25634 | 73.35832 | 32089 ft | 478 kts | 76° |
| 2026-04-26 16:05 | 43.26448 | 73.40255 | 32523 ft | 477 kts | 76° |
| 2026-04-26 16:06 | 43.27259 | 73.44655 | 32946 ft | 476 kts | 76° |
| 2026-04-26 16:06 | 43.28070 | 73.49050 | 33366 ft | 475 kts | 76° |
| 2026-04-26 16:06 | 43.28881 | 73.53449 | 33786 ft | 474 kts | 76° |
| 2026-04-26 16:06 | 43.29687 | 73.57832 | 34206 ft | 473 kts | 76° |
| 2026-04-26 16:07 | 43.30490 | 73.62212 | 34554 ft | 472 kts | 76° |
| 2026-04-26 16:07 | 43.31276 | 73.66529 | 34873 ft | 473 kts | 76° |
| 2026-04-26 16:07 | 43.32072 | 73.70911 | 35066 ft | 474 kts | 76° |
| 2026-04-26 16:08 | 43.33656 | 73.79669 | 35106 ft | 472 kts | 76° |
| 2026-04-26 16:08 | 43.35227 | 73.88420 | 35103 ft | 472 kts | 76° |
| 2026-04-26 16:09 | 43.36799 | 73.97178 | 35103 ft | 472 kts | 76° |
| 2026-04-26 16:09 | 43.38365 | 74.05937 | 35105 ft | 472 kts | 76° |
| 2026-04-26 16:10 | 43.39929 | 74.14707 | 35107 ft | 472 kts | 77° |
| 2026-04-26 16:10 | 43.41469 | 74.23425 | 35113 ft | 472 kts | 77° |
| 2026-04-26 16:11 | 43.43011 | 74.32194 | 35119 ft | 472 kts | 77° |
| 2026-04-26 16:11 | 43.44559 | 74.40969 | 35129 ft | 472 kts | 76° |
| 2026-04-26 16:12 | 43.46098 | 74.49744 | 35130 ft | 471 kts | 77° |
| 2026-04-26 16:12 | 43.48381 | 74.62916 | 35136 ft | 471 kts | 77° |
| 2026-04-26 16:13 | 43.49896 | 74.71691 | 35135 ft | 471 kts | 77° |
| 2026-04-26 16:13 | 43.50612 | 74.80554 | 35131 ft | 468 kts | 94° |
| 2026-04-26 16:14 | 43.49486 | 74.89332 | 34983 ft | 466 kts | 106° |
| 2026-04-26 16:14 | 43.47913 | 74.97962 | 34164 ft | 461 kts | 106° |
| 2026-04-26 16:15 | 43.47140 | 75.02219 | 33667 ft | 457 kts | 106° |
| 2026-04-26 16:15 | 43.46371 | 75.06455 | 33191 ft | 454 kts | 106° |
| 2026-04-26 16:15 | 43.45608 | 75.10645 | 32723 ft | 450 kts | 106° |
| 2026-04-26 16:16 | 43.44088 | 75.18915 | 31801 ft | 442 kts | 106° |
| 2026-04-26 16:16 | 43.43334 | 75.22997 | 31355 ft | 438 kts | 106° |
| 2026-04-26 16:16 | 43.42587 | 75.27043 | 30920 ft | 435 kts | 105° |
| 2026-04-26 16:16 | 43.41844 | 75.31064 | 30496 ft | 431 kts | 105° |
| 2026-04-26 16:17 | 43.41106 | 75.35047 | 30052 ft | 428 kts | 105° |
| 2026-04-26 16:17 | 43.40372 | 75.38993 | 29570 ft | 425 kts | 105° |
| 2026-04-26 16:17 | 43.39638 | 75.42920 | 29103 ft | 422 kts | 105° |
| 2026-04-26 16:17 | 43.38910 | 75.46810 | 28654 ft | 419 kts | 105° |
| 2026-04-26 16:18 | 43.38186 | 75.50676 | 28220 ft | 416 kts | 105° |
| 2026-04-26 16:18 | 43.37112 | 75.58421 | 27403 ft | 411 kts | 98° |
| 2026-04-26 16:19 | 43.36381 | 75.66116 | 26639 ft | 406 kts | 98° |
| 2026-04-26 16:19 | 43.36006 | 75.69953 | 26273 ft | 404 kts | 98° |
| 2026-04-26 16:19 | 43.36411 | 75.76285 | 25680 ft | 398 kts | 73° |
| 2026-04-26 16:20 | 43.37518 | 75.81073 | 25155 ft | 396 kts | 71° |
| 2026-04-26 16:20 | 43.39222 | 75.88240 | 24401 ft | 392 kts | 71° |
| 2026-04-26 16:20 | 43.40062 | 75.91786 | 24032 ft | 389 kts | 71° |
| 2026-04-26 16:21 | 43.40898 | 75.95322 | 23668 ft | 387 kts | 71° |
| 2026-04-26 16:21 | 43.41725 | 75.98831 | 23229 ft | 384 kts | 71° |
| 2026-04-26 16:21 | 43.42549 | 76.02318 | 22784 ft | 382 kts | 71° |
| 2026-04-26 16:21 | 43.43365 | 76.05779 | 22358 ft | 379 kts | 71° |
| 2026-04-26 16:22 | 43.44176 | 76.09216 | 21924 ft | 376 kts | 71° |
| 2026-04-26 16:22 | 43.44986 | 76.12641 | 21490 ft | 374 kts | 71° |
| 2026-04-26 16:22 | 43.45789 | 76.16034 | 21070 ft | 372 kts | 71° |
| 2026-04-26 16:22 | 43.46577 | 76.19366 | 20666 ft | 369 kts | 71° |
| 2026-04-26 16:23 | 43.47370 | 76.22717 | 20261 ft | 367 kts | 71° |
| 2026-04-26 16:23 | 43.48160 | 76.26047 | 19858 ft | 365 kts | 71° |
| 2026-04-26 16:23 | 43.48945 | 76.29355 | 19451 ft | 363 kts | 71° |
| 2026-04-26 16:23 | 43.49726 | 76.32643 | 19072 ft | 360 kts | 71° |
| 2026-04-26 16:24 | 43.50505 | 76.35923 | 18686 ft | 358 kts | 71° |
| 2026-04-26 16:24 | 43.51280 | 76.39178 | 18289 ft | 357 kts | 71° |
| 2026-04-26 16:24 | 43.52049 | 76.42415 | 17853 ft | 355 kts | 71° |
| 2026-04-26 16:24 | 43.52814 | 76.45643 | 17419 ft | 353 kts | 71° |
| 2026-04-26 16:25 | 43.53454 | 76.48898 | 16986 ft | 351 kts | 83° |
| 2026-04-26 16:25 | 43.53394 | 76.52233 | 16596 ft | 348 kts | 102° |
| 2026-04-26 16:25 | 43.52557 | 76.55332 | 16177 ft | 344 kts | 122° |
| 2026-04-26 16:25 | 43.51044 | 76.57835 | 15760 ft | 339 kts | 142° |
| 2026-04-26 16:26 | 43.49057 | 76.59511 | 15354 ft | 333 kts | 161° |
| 2026-04-26 16:26 | 43.47592 | 76.60105 | 15100 ft | 329 kts | 173° |
| 2026-04-26 16:26 | 43.44586 | 76.60751 | 14573 ft | 327 kts | 174° |
| 2026-04-26 16:26 | 43.42340 | 76.61215 | 14206 ft | 325 kts | 174° |
| 2026-04-26 16:27 | 43.40105 | 76.61675 | 13844 ft | 323 kts | 174° |
| 2026-04-26 16:27 | 43.37904 | 76.62133 | 13645 ft | 315 kts | 174° |
| 2026-04-26 16:27 | 43.35759 | 76.62578 | 13420 ft | 309 kts | 174° |
| 2026-04-26 16:27 | 43.33637 | 76.63017 | 13082 ft | 307 kts | 174° |
| 2026-04-26 16:28 | 43.31559 | 76.63446 | 12744 ft | 305 kts | 174° |
| 2026-04-26 16:28 | 43.29458 | 76.63909 | 12208 ft | 307 kts | 168° |
| 2026-04-26 16:28 | 43.27557 | 76.65138 | 11901 ft | 298 kts | 143° |
| 2026-04-26 16:28 | 43.26207 | 76.67200 | 11680 ft | 286 kts | 120° |
| 2026-04-26 16:29 | 43.25522 | 76.69735 | 11159 ft | 285 kts | 98° |
| 2026-04-26 16:29 | 43.25609 | 76.72420 | 10443 ft | 291 kts | 72° |
| 2026-04-26 16:29 | 43.26598 | 76.74761 | 10099 ft | 277 kts | 42° |
| 2026-04-26 16:29 | 43.28157 | 76.76082 | 9975 ft | 255 kts | 12° |
| 2026-04-26 16:30 | 43.29847 | 76.76190 | 9669 ft | 239 kts | 342° |
| 2026-04-26 16:30 | 43.31268 | 76.75137 | 9171 ft | 231 kts | 311° |
| 2026-04-26 16:30 | 43.32024 | 76.73249 | 8644 ft | 228 kts | 279° |
| 2026-04-26 16:30 | 43.31925 | 76.71054 | 7883 ft | 240 kts | 248° |
| 2026-04-26 16:31 | 43.30934 | 76.69151 | 7124 ft | 256 kts | 217° |
| 2026-04-26 16:31 | 43.29287 | 76.68124 | 6364 ft | 268 kts | 189° |
| 2026-04-26 16:31 | 43.27435 | 76.68352 | 5788 ft | 269 kts | 157° |
| 2026-04-26 16:31 | 43.25974 | 76.69785 | 5649 ft | 253 kts | 129° |
| 2026-04-26 16:32 | 43.25169 | 76.71826 | 5525 ft | 236 kts | 105° |
| 2026-04-26 16:32 | 43.24921 | 76.73260 | 5353 ft | 229 kts | 103° |
| 2026-04-26 16:32 | 43.24485 | 76.75963 | 5220 ft | 206 kts | 103° |
| 2026-04-26 16:32 | 43.24198 | 76.77760 | 5244 ft | 182 kts | 102° |
| 2026-04-26 16:33 | 43.24093 | 76.79408 | 5220 ft | 169 kts | 89° |
| 2026-04-26 16:33 | 43.24241 | 76.81012 | 5219 ft | 170 kts | 77° |
| 2026-04-26 16:33 | 43.24678 | 76.82527 | 5220 ft | 172 kts | 61° |
| 2026-04-26 16:33 | 43.25294 | 76.83929 | 5166 ft | 171 kts | 57° |
| 2026-04-26 16:34 | 43.25939 | 76.85273 | 5010 ft | 168 kts | 56° |
| 2026-04-26 16:34 | 43.26589 | 76.86595 | 4819 ft | 167 kts | 56° |
| 2026-04-26 16:34 | 43.27241 | 76.87910 | 4601 ft | 168 kts | 57° |
| 2026-04-26 16:34 | 43.27908 | 76.89250 | 4380 ft | 170 kts | 57° |
| 2026-04-26 16:35 | 43.28559 | 76.90556 | 4161 ft | 161 kts | 57° |
| 2026-04-26 16:35 | 43.29170 | 76.91782 | 3963 ft | 151 kts | 57° |
| 2026-04-26 16:35 | 43.29756 | 76.92959 | 3766 ft | 149 kts | 58° |
| 2026-04-26 16:35 | 43.30333 | 76.94119 | 3560 ft | 149 kts | 58° |
| 2026-04-26 16:36 | 43.30915 | 76.95290 | 3368 ft | 149 kts | 58° |
| 2026-04-26 16:36 | 43.31498 | 76.96461 | 3168 ft | 148 kts | 58° |
| 2026-04-26 16:36 | 43.32073 | 76.97619 | 2980 ft | 146 kts | 57° |
| 2026-04-26 16:36 | 43.32643 | 76.98761 | 2775 ft | 144 kts | 57° |
| 2026-04-26 16:37 | 43.33214 | 76.99890 | 2589 ft | 143 kts | 57° |
| 2026-04-26 16:37 | 43.33772 | 77.01026 | 2397 ft | 143 kts | 57° |
| 2026-04-26 16:37 | 43.34334 | 77.02155 | 2234 ft | 140 kts | 57° |
| 2026-04-26 16:37 | 43.34674 | 77.02869 | 2225 ft | 122 kts | 58° |
| 2026-04-26 16:38 | 43.35089 | 77.03704 | 2225 ft | 20 kts | 52° |
| 2026-04-26 16:38 | 43.35187 | 77.03848 | 2229 ft | 17 kts | 45° |
| 2026-04-26 16:38 | 43.35282 | 77.03935 | 2223 ft | 15 kts | 29° |
| 2026-04-26 16:38 | 43.35320 | 77.03962 | 2223 ft | 0 kts | 26° |
| 2026-04-26 16:39 | 43.35322 | 77.03963 | 2223 ft | 0 kts | 26° |
| 2026-04-26 16:39 | 43.35325 | 77.03965 | 2224 ft | 2 kts | 26° |
| 2026-04-26 16:39 | 43.35333 | 77.03971 | 2225 ft | 0 kts | 26° |
| 2026-04-26 16:39 | 43.35336 | 77.03973 | 2226 ft | 1 kts | 26° |
| 2026-04-26 16:40 | 43.35354 | 77.03985 | 2223 ft | 4 kts | 26° |
| 2026-04-26 16:40 | 43.35391 | 77.04009 | 2224 ft | 7 kts | 21° |
| 2026-04-26 16:40 | 43.35445 | 77.03994 | 2225 ft | 9 kts | 316° |
| 2026-04-26 16:40 | 43.35429 | 77.03916 | 2222 ft | 10 kts | 236° |
| 2026-04-26 16:41 | 43.35387 | 77.03830 | 2223 ft | 11 kts | 235° |
| 2026-04-26 16:41 | 43.35341 | 77.03737 | 2225 ft | 13 kts | 235° |
| 2026-04-26 16:41 | 43.35287 | 77.03630 | 2228 ft | 15 kts | 236° |
| 2026-04-26 16:41 | 43.35227 | 77.03509 | 2228 ft | 16 kts | 236° |
| 2026-04-26 16:42 | 43.35171 | 77.03395 | 2226 ft | 15 kts | 236° |
| 2026-04-26 16:42 | 43.35109 | 77.03270 | 2227 ft | 16 kts | 236° |
| 2026-04-26 16:42 | 43.35045 | 77.03142 | 2225 ft | 18 kts | 235° |
| 2026-04-26 16:42 | 43.34968 | 77.02992 | 2223 ft | 20 kts | 234° |
| 2026-04-26 16:43 | 43.34888 | 77.02832 | 2224 ft | 20 kts | 237° |
| 2026-04-26 16:43 | 43.34838 | 77.02725 | 2227 ft | 16 kts | 236° |
| 2026-04-26 16:43 | 43.34782 | 77.02611 | 2226 ft | 11 kts | 238° |
| 2026-04-26 16:43 | 43.34773 | 77.02508 | 2226 ft | 11 kts | 273° |
| 2026-04-26 16:44 | 43.34778 | 77.02389 | 2229 ft | 14 kts | 274° |
| 2026-04-26 16:44 | 43.34783 | 77.02284 | 2228 ft | 9 kts | 274° |
| 2026-04-26 16:44 | 43.34784 | 77.02268 | 2226 ft | 2 kts | 274° |
| 2026-04-26 16:44 | 43.34786 | 77.02224 | 2227 ft | 7 kts | 274° |
| 2026-04-26 16:45 | 43.34790 | 77.02147 | 2229 ft | 9 kts | 274° |
| 2026-04-26 16:45 | 43.34794 | 77.02058 | 2229 ft | 9 kts | 274° |
| 2026-04-26 16:45 | 43.34798 | 77.01974 | 2229 ft | 9 kts | 274° |
| 2026-04-26 16:45 | 43.34803 | 77.01891 | 2229 ft | 7 kts | 274° |
| 2026-04-26 16:46 | 43.34806 | 77.01822 | 2229 ft | 7 kts | 274° |
| 2026-04-26 16:46 | 43.34819 | 77.01783 | 2227 ft | 3 kts | 318° |
| 2026-04-26 16:46 | 43.34843 | 77.01779 | 2225 ft | 4 kts | 360° |
| 2026-04-26 16:46 | 43.34869 | 77.01781 | 2227 ft | 1 kts | 3° |
| 2026-04-26 16:47 | 43.34879 | 77.01782 | 2227 ft | 0 kts | 3° |
| 2026-04-26 16:47 | 43.34880 | 77.01782 | 2227 ft | 0 kts | 3° |